createdAt,value
2019-02-24T11:17:02.571Z,99.90
2019-02-24T11:43:02.654Z,63.40
2019-02-24T11:45:33.637Z,58.20
2019-02-24T13:56:42.288Z,42.90
2019-02-24T13:59:13.071Z,45.50
2019-02-24T14:01:43.856Z,49.00
2019-02-24T14:04:14.726Z,52.30
2019-02-24T14:06:45.625Z,50.20
2019-02-24T14:09:16.365Z,52.20
2019-02-24T14:11:47.140Z,53.50
2019-02-24T14:14:17.909Z,54.10
2019-02-24T14:16:48.663Z,52.90
2019-02-24T14:19:20.384Z,53.60
2019-02-24T14:21:51.205Z,54.70
2019-02-24T14:24:21.956Z,53.90
2019-02-24T14:26:52.864Z,53.30
2019-02-24T14:29:23.620Z,54.10
2019-02-24T14:31:54.516Z,54.00
2019-02-24T14:34:25.289Z,53.10
2019-02-24T14:36:56.043Z,52.70
2019-02-24T14:39:26.791Z,52.40
2019-02-24T14:41:57.612Z,53.00
2019-02-24T14:44:28.629Z,52.60
2019-02-24T14:46:59.408Z,52.20
2019-02-24T14:49:30.152Z,50.70
2019-02-24T14:52:01.044Z,48.70
2019-02-24T14:54:31.864Z,49.50
2019-02-24T14:57:02.624Z,49.80
2019-02-24T14:59:33.451Z,48.10
2019-02-24T15:02:04.341Z,46.80
2019-02-24T15:04:35.112Z,47.60
2019-02-24T15:07:07.849Z,44.40
2019-02-24T15:09:38.516Z,47.20
2019-02-24T15:12:09.266Z,48.30
2019-02-24T15:14:40.096Z,48.80
2019-02-24T15:17:10.976Z,49.30
2019-02-24T15:19:41.812Z,47.90
2019-02-24T15:22:12.634Z,48.70
2019-02-24T15:24:43.544Z,49.90
2019-02-24T15:27:14.296Z,50.00
2019-02-24T15:29:45.112Z,49.80
2019-02-24T15:32:15.844Z,49.50
2019-02-24T15:34:47.544Z,50.20
2019-02-24T15:37:18.313Z,47.20
2019-02-24T15:39:49.239Z,48.10
2019-02-24T15:42:20.156Z,48.60
2019-02-24T15:44:50.921Z,48.20
2019-02-24T15:47:21.758Z,49.40
2019-02-24T15:49:52.705Z,49.70
2019-02-24T15:52:23.481Z,51.30
2019-02-24T15:54:54.384Z,52.00
2019-02-24T15:57:25.197Z,52.30
2019-02-24T15:59:56.016Z,53.20
2019-02-24T16:02:26.829Z,53.90
2019-02-24T16:04:57.660Z,53.60
2019-02-24T16:07:28.481Z,54.90
2019-02-24T16:09:59.224Z,56.70
2019-02-24T16:12:31.117Z,56.30
2019-02-24T16:15:01.864Z,55.40
2019-02-24T16:17:33.965Z,54.60
2019-02-24T16:20:04.975Z,55.80
2019-02-24T16:22:35.717Z,54.10
2019-02-24T16:25:06.893Z,54.00
2019-02-24T16:27:37.719Z,53.50
2019-02-24T16:30:09.485Z,53.20
2019-02-24T16:32:40.316Z,53.90
2019-02-24T16:35:12.817Z,54.20
2019-02-24T16:37:43.733Z,55.50
2019-02-24T16:40:18.317Z,56.30
2019-02-24T16:42:50.264Z,56.50
2019-02-24T16:45:21.237Z,57.30
2019-02-24T16:47:52.349Z,57.10
2019-02-24T16:50:23.287Z,58.00
2019-02-24T16:52:54.203Z,58.60
2019-02-24T16:55:25.047Z,59.70
2019-02-24T16:57:56.023Z,62.70
2019-02-24T17:00:27.028Z,64.40
2019-02-24T17:02:58.197Z,70.10
2019-02-24T17:05:29.337Z,69.70
2019-02-24T17:08:00.377Z,71.80
2019-02-24T17:10:31.355Z,78.40
2019-02-24T17:13:02.119Z,83.70
2019-02-24T17:15:32.963Z,84.20
2019-02-24T17:18:03.950Z,83.90
2019-02-24T17:20:34.755Z,84.00
2019-02-24T17:23:06.643Z,82.90
2019-02-24T17:25:37.543Z,85.20
2019-02-24T17:28:08.360Z,85.50
2019-02-24T17:30:39.264Z,89.30
2019-02-24T17:33:10.131Z,92.40
2019-02-24T17:35:41.060Z,88.20
2019-02-24T17:38:12.011Z,86.80
2019-02-24T17:40:42.912Z,87.60
2019-02-24T17:43:13.795Z,86.40
2019-02-24T17:45:44.981Z,88.20
2019-02-24T17:48:15.840Z,90.20
2019-02-24T17:50:46.644Z,91.80
2019-02-24T17:53:17.570Z,89.50
2019-02-24T17:55:48.299Z,93.60
2019-02-24T17:58:19.051Z,92.00
2019-02-24T18:00:58.271Z,93.30
2019-02-24T18:03:29.075Z,96.60
2019-02-24T18:05:59.995Z,97.40
2019-02-24T18:08:30.832Z,98.80
2019-02-24T18:11:01.604Z,99.10
2019-02-24T18:13:32.485Z,99.20
2019-02-24T18:16:03.461Z,99.90
2019-02-24T18:18:35.235Z,99.90
2019-02-24T18:21:06.710Z,99.90
2019-02-24T18:23:37.628Z,99.90
2019-02-24T18:26:08.531Z,99.90
2019-02-24T18:28:39.355Z,99.90
2019-02-24T18:31:10.192Z,99.90
2019-02-24T18:33:48.117Z,99.90
2019-02-24T18:36:13.588Z,99.90
2019-02-24T18:38:44.408Z,99.90
2019-02-24T18:41:15.305Z,99.90
2019-02-24T18:43:46.221Z,99.90
2019-02-24T18:46:17.059Z,99.90
2019-02-24T18:48:47.883Z,99.90
2019-02-24T18:51:18.645Z,99.90
2019-02-24T18:53:49.440Z,99.90
2019-02-24T18:56:20.396Z,99.90
2019-02-24T18:58:51.273Z,99.90
2019-02-24T19:01:22.108Z,99.90
2019-02-24T19:03:57.557Z,99.90
2019-02-24T19:06:26.612Z,99.90
2019-02-24T19:08:57.440Z,99.90
2019-02-24T19:11:28.247Z,99.90
2019-02-24T19:13:59.026Z,99.90
2019-02-24T19:16:29.908Z,99.90
2019-02-24T19:19:00.833Z,99.90
2019-02-24T19:21:31.748Z,99.90
2019-02-24T19:24:02.511Z,99.90
2019-02-24T19:26:33.312Z,99.90
2019-02-24T19:29:04.219Z,99.90
2019-02-24T19:31:35.059Z,99.90
2019-02-24T19:34:07.186Z,99.90
2019-02-24T19:36:37.953Z,99.90
2019-02-24T19:39:13.536Z,99.90
2019-02-24T19:41:44.368Z,99.90
2019-02-24T19:44:15.175Z,99.90
2019-02-24T19:46:45.908Z,99.90
2019-02-24T19:49:16.732Z,99.90
2019-02-24T19:51:47.588Z,99.90
2019-02-24T19:54:18.404Z,99.90
2019-02-24T19:56:49.227Z,99.90
2019-02-24T19:59:20.043Z,99.90
2019-02-24T20:01:50.980Z,99.90
2019-02-24T20:04:21.780Z,99.90
2019-02-24T20:06:52.592Z,99.90
2019-02-24T20:09:23.432Z,99.90
2019-02-24T20:11:54.336Z,99.90
2019-02-24T20:14:25.228Z,99.90
2019-02-24T20:16:56.236Z,99.90
2019-02-24T20:19:27.052Z,99.90
2019-02-24T20:21:57.892Z,99.90
2019-02-24T20:24:33.060Z,99.90
2019-02-24T20:27:01.467Z,99.90
2019-02-24T20:29:32.316Z,99.90
2019-02-24T20:32:03.172Z,99.90
2019-02-24T20:34:34.004Z,99.90
2019-02-24T20:37:04.888Z,99.90
2019-02-24T20:39:35.708Z,99.90
2019-02-24T20:42:06.600Z,99.90
2019-02-24T20:44:37.400Z,99.90
2019-02-24T20:47:08.284Z,99.90
2019-02-24T20:49:39.169Z,99.90
2019-02-24T20:52:09.984Z,99.90
2019-02-24T20:54:40.924Z,99.90
2019-02-24T20:57:11.653Z,99.90
2019-02-24T20:59:42.528Z,99.90
2019-02-24T21:02:13.276Z,99.90
2019-02-24T21:04:44.124Z,99.90
2019-02-24T21:07:15.080Z,99.90
2019-02-24T21:09:45.888Z,99.90
2019-02-24T21:12:16.800Z,99.90
2019-02-24T21:14:47.666Z,99.90
2019-02-24T21:17:18.496Z,99.90
2019-02-24T21:19:49.248Z,99.90
2019-02-24T21:22:20.236Z,99.90
2019-02-24T21:24:50.977Z,99.90
2019-02-24T21:27:21.801Z,99.90
2019-02-24T21:29:52.611Z,99.90
2019-02-24T21:32:23.339Z,99.90
2019-02-24T21:34:54.152Z,99.90
2019-02-24T21:37:24.943Z,99.90
2019-02-24T21:39:55.743Z,99.90
2019-02-24T21:42:26.491Z,99.90
2019-02-24T21:44:57.343Z,99.90
2019-02-24T21:47:28.219Z,99.90
2019-02-24T21:49:59.051Z,99.90
2019-02-24T21:52:29.855Z,99.90
2019-02-24T21:55:00.655Z,99.90
2019-02-24T21:57:31.787Z,99.90
2019-02-24T22:00:02.679Z,99.90
2019-02-24T22:02:34.791Z,99.90
2019-02-24T22:05:06.659Z,99.90
2019-02-24T22:07:37.539Z,99.90
2019-02-24T22:10:09.343Z,99.90
2019-02-24T22:12:40.315Z,99.90
2019-02-24T22:15:13.563Z,99.90
2019-02-24T22:17:44.442Z,99.90
2019-02-24T22:20:16.259Z,99.90
2019-02-24T22:22:47.265Z,99.90
2019-02-24T22:25:18.262Z,99.90
2019-02-24T22:27:56.955Z,99.90
2019-02-24T22:30:28.541Z,99.90
2019-02-24T22:32:59.303Z,99.90
2019-02-24T22:35:30.179Z,99.90
2019-02-24T22:38:01.133Z,99.90
2019-02-24T22:40:32.075Z,99.90
2019-02-24T22:43:02.891Z,99.90
2019-02-24T22:45:33.783Z,99.90
2019-02-24T22:48:05.694Z,99.90
2019-02-24T22:50:37.631Z,99.90
2019-02-24T22:53:08.483Z,99.90
2019-02-24T22:55:39.223Z,99.90
2019-02-24T22:58:10.031Z,99.90
2019-02-24T23:01:05.647Z,99.90
2019-02-24T23:03:42.911Z,99.90
2019-02-24T23:06:13.965Z,99.90
2019-02-24T23:08:45.111Z,99.90
2019-02-24T23:11:16.079Z,99.90
2019-02-24T23:13:46.955Z,99.90
2019-02-24T23:16:17.748Z,99.90
2019-02-24T23:18:48.574Z,99.90
2019-02-24T23:21:19.384Z,99.90
2019-02-24T23:24:03.127Z,99.90
2019-02-24T23:26:33.876Z,99.90
2019-02-24T23:29:05.903Z,99.90
2019-02-24T23:31:36.715Z,99.90
2019-02-24T23:34:07.475Z,99.90
2019-02-24T23:36:38.343Z,99.90
2019-02-24T23:39:13.475Z,99.90
2019-02-24T23:41:44.358Z,99.90
2019-02-24T23:44:15.313Z,99.90
2019-02-24T23:46:46.183Z,99.90
2019-02-24T23:49:16.999Z,99.90
2019-02-24T23:51:47.892Z,99.90
2019-02-24T23:54:18.703Z,99.90
2019-02-24T23:56:49.495Z,99.90
2019-02-24T23:59:20.315Z,99.90
